sensor_id;sensor_type;location;lat;lon;timestamp;P1;durP1;ratioP1;P2;durP2;ratioP2
11486;SDS011;10510;47.942;9.442;2024-01-30T00:00:31;14.93;;;7.90;;
11486;SDS011;10510;47.942;9.442;2024-01-30T00:02:31;15.25;;;7.35;;
11486;SDS011;10510;47.942;9.442;2024-01-30T00:04:32;17.35;;;8.32;;
11486;SDS011;10510;47.942;9.442;2024-01-30T00:06:32;15.68;;;7.85;;
11486;SDS011;10510;47.942;9.442;2024-01-30T00:08:33;18.55;;;7.60;;
11486;SDS011;10510;47.942;9.442;2024-01-30T00:10:33;18.65;;;8.90;;
11486;SDS011;10510;47.942;9.442;2024-01-30T00:12:33;17.35;;;7.50;;
11486;SDS011;10510;47.942;9.442;2024-01-30T00:14:34;18.20;;;8.05;;
11486;SDS011;10510;47.942;9.442;2024-01-30T00:16:34;16.08;;;8.52;;
11486;SDS011;10510;47.942;9.442;2024-01-30T00:18:35;16.15;;;7.78;;
11486;SDS011;10510;47.942;9.442;2024-01-30T00:20:35;18.30;;;8.70;;
11486;SDS011;10510;47.942;9.442;2024-01-30T00:22:36;17.67;;;7.65;;
11486;SDS011;10510;47.942;9.442;2024-01-30T00:24:36;16.00;;;7.90;;
11486;SDS011;10510;47.942;9.442;2024-01-30T00:26:36;19.23;;;8.38;;
11486;SDS011;10510;47.942;9.442;2024-01-30T00:28:40;17.80;;;7.03;;
11486;SDS011;10510;47.942;9.442;2024-01-30T00:30:41;17.58;;;7.22;;
11486;SDS011;10510;47.942;9.442;2024-01-30T00:32:42;18.15;;;8.50;;
11486;SDS011;10510;47.942;9.442;2024-01-30T00:34:42;18.65;;;8.15;;
11486;SDS011;10510;47.942;9.442;2024-01-30T00:36:42;34.67;;;8.07;;
11486;SDS011;10510;47.942;9.442;2024-01-30T00:38:43;18.70;;;6.82;;
11486;SDS011;10510;47.942;9.442;2024-01-30T00:40:43;18.95;;;7.80;;
11486;SDS011;10510;47.942;9.442;2024-01-30T00:42:43;17.20;;;8.75;;
11486;SDS011;10510;47.942;9.442;2024-01-30T00:44:44;15.18;;;7.80;;
11486;SDS011;10510;47.942;9.442;2024-01-30T00:46:45;18.30;;;7.88;;
11486;SDS011;10510;47.942;9.442;2024-01-30T00:48:45;15.02;;;7.15;;
11486;SDS011;10510;47.942;9.442;2024-01-30T00:50:46;14.10;;;7.13;;
11486;SDS011;10510;47.942;9.442;2024-01-30T00:52:46;20.80;;;7.60;;
11486;SDS011;10510;47.942;9.442;2024-01-30T00:54:46;15.68;;;7.65;;
11486;SDS011;10510;47.942;9.442;2024-01-30T00:56:47;13.05;;;7.40;;
11486;SDS011;10510;47.942;9.442;2024-01-30T00:58:47;15.63;;;7.70;;
11486;SDS011;10510;47.942;9.442;2024-01-30T01:00:47;15.55;;;7.60;;
11486;SDS011;10510;47.942;9.442;2024-01-30T01:02:47;19.30;;;8.27;;
11486;SDS011;10510;47.942;9.442;2024-01-30T01:04:48;17.98;;;8.27;;
11486;SDS011;10510;47.942;9.442;2024-01-30T01:06:48;14.20;;;7.57;;
11486;SDS011;10510;47.942;9.442;2024-01-30T01:08:48;18.83;;;8.80;;
11486;SDS011;10510;47.942;9.442;2024-01-30T01:10:49;16.77;;;8.18;;
11486;SDS011;10510;47.942;9.442;2024-01-30T01:12:49;16.08;;;7.57;;
11486;SDS011;10510;47.942;9.442;2024-01-30T01:14:49;14.25;;;7.03;;
11486;SDS011;10510;47.942;9.442;2024-01-30T01:16:50;15.85;;;7.75;;
11486;SDS011;10510;47.942;9.442;2024-01-30T01:18:50;18.55;;;8.25;;
11486;SDS011;10510;47.942;9.442;2024-01-30T01:20:50;16.40;;;7.88;;
11486;SDS011;10510;47.942;9.442;2024-01-30T01:22:51;16.00;;;7.90;;
11486;SDS011;10510;47.942;9.442;2024-01-30T01:24:52;16.00;;;7.50;;
11486;SDS011;10510;47.942;9.442;2024-01-30T01:26:52;17.33;;;7.90;;
11486;SDS011;10510;47.942;9.442;2024-01-30T01:28:53;15.38;;;7.43;;
11486;SDS011;10510;47.942;9.442;2024-01-30T01:30:53;17.05;;;7.35;;
11486;SDS011;10510;47.942;9.442;2024-01-30T01:32:58;16.08;;;7.13;;
11486;SDS011;10510;47.942;9.442;2024-01-30T01:35:02;17.50;;;7.97;;
11486;SDS011;10510;47.942;9.442;2024-01-30T01:37:04;12.70;;;6.95;;
11486;SDS011;10510;47.942;9.442;2024-01-30T01:39:04;14.18;;;7.57;;
11486;SDS011;10510;47.942;9.442;2024-01-30T01:41:04;16.65;;;7.65;;
11486;SDS011;10510;47.942;9.442;2024-01-30T01:43:05;28.35;;;9.95;;
11486;SDS011;10510;47.942;9.442;2024-01-30T01:45:06;19.67;;;10.00;;
11486;SDS011;10510;47.942;9.442;2024-01-30T01:47:07;46.25;;;15.82;;
11486;SDS011;10510;47.942;9.442;2024-01-30T01:49:07;46.50;;;16.17;;
11486;SDS011;10510;47.942;9.442;2024-01-30T01:51:08;40.58;;;15.05;;
11486;SDS011;10510;47.942;9.442;2024-01-30T01:53:09;40.13;;;14.18;;
11486;SDS011;10510;47.942;9.442;2024-01-30T01:55:10;40.60;;;15.07;;
11486;SDS011;10510;47.942;9.442;2024-01-30T01:57:12;40.63;;;14.80;;
11486;SDS011;10510;47.942;9.442;2024-01-30T01:59:12;40.80;;;13.45;;
11486;SDS011;10510;47.942;9.442;2024-01-30T02:01:13;27.45;;;11.80;;
11486;SDS011;10510;47.942;9.442;2024-01-30T02:03:14;32.35;;;12.20;;
11486;SDS011;10510;47.942;9.442;2024-01-30T02:05:17;30.30;;;11.88;;
11486;SDS011;10510;47.942;9.442;2024-01-30T02:07:18;33.95;;;12.25;;
11486;SDS011;10510;47.942;9.442;2024-01-30T02:09:19;31.95;;;12.38;;
11486;SDS011;10510;47.942;9.442;2024-01-30T02:11:22;36.63;;;12.35;;
11486;SDS011;10510;47.942;9.442;2024-01-30T02:13:23;23.73;;;11.30;;
11486;SDS011;10510;47.942;9.442;2024-01-30T02:15:24;24.95;;;10.30;;
11486;SDS011;10510;47.942;9.442;2024-01-30T02:17:24;23.15;;;9.48;;
11486;SDS011;10510;47.942;9.442;2024-01-30T02:19:24;26.75;;;9.85;;
11486;SDS011;10510;47.942;9.442;2024-01-30T02:21:25;25.95;;;10.15;;
11486;SDS011;10510;47.942;9.442;2024-01-30T02:23:25;24.27;;;10.70;;
11486;SDS011;10510;47.942;9.442;2024-01-30T02:25:37;23.10;;;10.82;;
11486;SDS011;10510;47.942;9.442;2024-01-30T02:27:39;22.30;;;9.35;;
11486;SDS011;10510;47.942;9.442;2024-01-30T02:29:39;21.85;;;8.93;;
11486;SDS011;10510;47.942;9.442;2024-01-30T02:31:39;17.73;;;6.97;;
11486;SDS011;10510;47.942;9.442;2024-01-30T02:33:40;17.20;;;7.38;;
11486;SDS011;10510;47.942;9.442;2024-01-30T02:35:40;17.27;;;8.07;;
11486;SDS011;10510;47.942;9.442;2024-01-30T02:37:40;12.75;;;6.45;;
11486;SDS011;10510;47.942;9.442;2024-01-30T02:39:40;12.88;;;6.22;;
11486;SDS011;10510;47.942;9.442;2024-01-30T02:41:41;15.93;;;6.10;;
11486;SDS011;10510;47.942;9.442;2024-01-30T02:43:41;17.23;;;6.15;;
11486;SDS011;10510;47.942;9.442;2024-01-30T02:45:41;13.75;;;5.93;;
11486;SDS011;10510;47.942;9.442;2024-01-30T02:47:42;10.30;;;5.68;;
11486;SDS011;10510;47.942;9.442;2024-01-30T02:49:42;10.52;;;6.22;;
11486;SDS011;10510;47.942;9.442;2024-01-30T02:51:42;11.82;;;6.20;;
11486;SDS011;10510;47.942;9.442;2024-01-30T02:53:43;11.07;;;5.38;;
11486;SDS011;10510;47.942;9.442;2024-01-30T02:55:43;14.00;;;7.00;;
11486;SDS011;10510;47.942;9.442;2024-01-30T02:57:44;13.32;;;6.63;;
11486;SDS011;10510;47.942;9.442;2024-01-30T02:59:44;11.70;;;5.53;;
11486;SDS011;10510;47.942;9.442;2024-01-30T03:01:44;14.98;;;6.57;;
11486;SDS011;10510;47.942;9.442;2024-01-30T03:03:46;14.40;;;6.90;;
11486;SDS011;10510;47.942;9.442;2024-01-30T03:05:46;15.77;;;5.72;;
11486;SDS011;10510;47.942;9.442;2024-01-30T03:07:46;13.25;;;6.13;;
11486;SDS011;10510;47.942;9.442;2024-01-30T03:09:47;16.58;;;6.95;;
11486;SDS011;10510;47.942;9.442;2024-01-30T03:11:48;13.20;;;6.93;;
11486;SDS011;10510;47.942;9.442;2024-01-30T03:13:48;13.70;;;6.80;;
11486;SDS011;10510;47.942;9.442;2024-01-30T03:15:48;12.75;;;6.30;;
11486;SDS011;10510;47.942;9.442;2024-01-30T03:17:49;13.68;;;6.65;;
11486;SDS011;10510;47.942;9.442;2024-01-30T03:19:49;16.10;;;7.00;;
11486;SDS011;10510;47.942;9.442;2024-01-30T03:21:50;18.30;;;8.07;;
11486;SDS011;10510;47.942;9.442;2024-01-30T03:23:51;13.13;;;6.63;;
11486;SDS011;10510;47.942;9.442;2024-01-30T03:25:51;12.57;;;6.43;;
11486;SDS011;10510;47.942;9.442;2024-01-30T03:27:51;17.90;;;6.18;;
11486;SDS011;10510;47.942;9.442;2024-01-30T03:29:52;17.42;;;7.55;;
11486;SDS011;10510;47.942;9.442;2024-01-30T03:31:52;12.85;;;6.53;;
11486;SDS011;10510;47.942;9.442;2024-01-30T03:33:52;18.05;;;7.55;;
11486;SDS011;10510;47.942;9.442;2024-01-30T03:35:53;12.20;;;6.57;;
11486;SDS011;10510;47.942;9.442;2024-01-30T03:37:53;11.75;;;6.20;;
11486;SDS011;10510;47.942;9.442;2024-01-30T03:39:53;14.63;;;6.65;;
11486;SDS011;10510;47.942;9.442;2024-01-30T03:41:54;16.45;;;6.53;;
11486;SDS011;10510;47.942;9.442;2024-01-30T03:43:54;13.50;;;6.15;;
11486;SDS011;10510;47.942;9.442;2024-01-30T03:45:54;12.65;;;5.80;;
11486;SDS011;10510;47.942;9.442;2024-01-30T03:47:55;17.38;;;7.15;;
11486;SDS011;10510;47.942;9.442;2024-01-30T03:49:55;13.13;;;6.40;;
11486;SDS011;10510;47.942;9.442;2024-01-30T03:51:55;14.95;;;5.88;;
11486;SDS011;10510;47.942;9.442;2024-01-30T03:53:56;15.48;;;6.05;;
11486;SDS011;10510;47.942;9.442;2024-01-30T03:55:56;13.93;;;6.72;;
11486;SDS011;10510;47.942;9.442;2024-01-30T03:57:56;16.73;;;6.40;;
11486;SDS011;10510;47.942;9.442;2024-01-30T03:59:57;16.10;;;6.63;;
11486;SDS011;10510;47.942;9.442;2024-01-30T04:01:57;15.90;;;7.38;;
11486;SDS011;10510;47.942;9.442;2024-01-30T04:03:57;14.15;;;7.22;;
11486;SDS011;10510;47.942;9.442;2024-01-30T04:05:58;13.15;;;6.45;;
11486;SDS011;10510;47.942;9.442;2024-01-30T04:07:58;16.65;;;6.18;;
11486;SDS011;10510;47.942;9.442;2024-01-30T04:09:59;13.57;;;6.82;;
11486;SDS011;10510;47.942;9.442;2024-01-30T04:11:59;13.75;;;7.30;;
11486;SDS011;10510;47.942;9.442;2024-01-30T04:14:00;16.38;;;7.57;;
11486;SDS011;10510;47.942;9.442;2024-01-30T04:16:00;17.85;;;8.73;;
11486;SDS011;10510;47.942;9.442;2024-01-30T04:18:03;23.33;;;10.20;;
11486;SDS011;10510;47.942;9.442;2024-01-30T04:20:04;31.70;;;12.65;;
11486;SDS011;10510;47.942;9.442;2024-01-30T04:22:05;34.92;;;13.93;;
11486;SDS011;10510;47.942;9.442;2024-01-30T04:24:05;38.38;;;13.82;;
11486;SDS011;10510;47.942;9.442;2024-01-30T04:26:05;35.55;;;13.73;;
11486;SDS011;10510;47.942;9.442;2024-01-30T04:28:06;36.42;;;13.93;;
11486;SDS011;10510;47.942;9.442;2024-01-30T04:30:06;33.42;;;12.43;;
11486;SDS011;10510;47.942;9.442;2024-01-30T04:32:07;31.90;;;11.32;;
11486;SDS011;10510;47.942;9.442;2024-01-30T04:34:07;24.70;;;10.73;;
11486;SDS011;10510;47.942;9.442;2024-01-30T04:36:08;22.23;;;10.07;;
11486;SDS011;10510;47.942;9.442;2024-01-30T04:38:11;28.15;;;12.00;;
11486;SDS011;10510;47.942;9.442;2024-01-30T04:40:12;35.90;;;13.25;;
11486;SDS011;10510;47.942;9.442;2024-01-30T04:42:12;37.03;;;14.88;;
11486;SDS011;10510;47.942;9.442;2024-01-30T04:44:13;47.05;;;14.60;;
11486;SDS011;10510;47.942;9.442;2024-01-30T04:46:13;26.90;;;13.48;;
11486;SDS011;10510;47.942;9.442;2024-01-30T04:48:13;33.55;;;14.68;;
11486;SDS011;10510;47.942;9.442;2024-01-30T04:50:13;30.05;;;13.40;;
11486;SDS011;10510;47.942;9.442;2024-01-30T04:52:14;29.58;;;13.40;;
11486;SDS011;10510;47.942;9.442;2024-01-30T04:54:14;32.88;;;13.68;;
11486;SDS011;10510;47.942;9.442;2024-01-30T04:56:14;34.85;;;13.38;;
11486;SDS011;10510;47.942;9.442;2024-01-30T04:58:14;35.53;;;15.32;;
11486;SDS011;10510;47.942;9.442;2024-01-30T05:00:15;28.95;;;11.88;;
11486;SDS011;10510;47.942;9.442;2024-01-30T05:02:15;30.73;;;13.25;;
11486;SDS011;10510;47.942;9.442;2024-01-30T05:04:16;29.25;;;12.32;;
11486;SDS011;10510;47.942;9.442;2024-01-30T05:06:26;25.98;;;12.45;;
11486;SDS011;10510;47.942;9.442;2024-01-30T05:08:27;28.58;;;12.40;;
11486;SDS011;10510;47.942;9.442;2024-01-30T05:10:27;24.88;;;11.90;;
11486;SDS011;10510;47.942;9.442;2024-01-30T05:12:28;31.45;;;12.10;;
11486;SDS011;10510;47.942;9.442;2024-01-30T05:14:29;25.35;;;11.77;;
11486;SDS011;10510;47.942;9.442;2024-01-30T05:16:30;22.92;;;10.75;;
11486;SDS011;10510;47.942;9.442;2024-01-30T05:18:31;24.98;;;11.90;;
11486;SDS011;10510;47.942;9.442;2024-01-30T05:20:31;22.05;;;10.32;;
11486;SDS011;10510;47.942;9.442;2024-01-30T05:22:32;26.40;;;12.35;;
11486;SDS011;10510;47.942;9.442;2024-01-30T05:24:32;26.70;;;10.55;;
11486;SDS011;10510;47.942;9.442;2024-01-30T05:26:32;23.35;;;11.32;;
11486;SDS011;10510;47.942;9.442;2024-01-30T05:28:33;24.42;;;10.07;;
11486;SDS011;10510;47.942;9.442;2024-01-30T05:30:33;28.98;;;11.40;;
11486;SDS011;10510;47.942;9.442;2024-01-30T05:32:33;30.73;;;10.68;;
11486;SDS011;10510;47.942;9.442;2024-01-30T05:34:35;25.95;;;11.55;;
11486;SDS011;10510;47.942;9.442;2024-01-30T05:36:35;25.23;;;12.73;;
11486;SDS011;10510;47.942;9.442;2024-01-30T05:38:35;30.92;;;11.82;;
11486;SDS011;10510;47.942;9.442;2024-01-30T05:40:36;27.63;;;11.63;;
11486;SDS011;10510;47.942;9.442;2024-01-30T05:42:36;26.52;;;11.32;;
11486;SDS011;10510;47.942;9.442;2024-01-30T05:44:36;23.85;;;10.57;;
11486;SDS011;10510;47.942;9.442;2024-01-30T05:46:37;20.88;;;10.30;;
11486;SDS011;10510;47.942;9.442;2024-01-30T05:48:37;21.75;;;10.32;;
11486;SDS011;10510;47.942;9.442;2024-01-30T05:50:37;24.73;;;10.48;;
11486;SDS011;10510;47.942;9.442;2024-01-30T05:52:37;25.00;;;11.18;;
11486;SDS011;10510;47.942;9.442;2024-01-30T05:54:38;33.80;;;12.93;;
11486;SDS011;10510;47.942;9.442;2024-01-30T05:56:38;25.90;;;11.65;;
11486;SDS011;10510;47.942;9.442;2024-01-30T05:58:38;29.83;;;12.80;;
11486;SDS011;10510;47.942;9.442;2024-01-30T06:00:39;29.70;;;11.85;;
11486;SDS011;10510;47.942;9.442;2024-01-30T06:02:39;28.42;;;13.70;;
11486;SDS011;10510;47.942;9.442;2024-01-30T06:04:39;32.38;;;13.70;;
11486;SDS011;10510;47.942;9.442;2024-01-30T06:06:40;30.83;;;13.30;;
11486;SDS011;10510;47.942;9.442;2024-01-30T06:08:40;39.90;;;13.65;;
11486;SDS011;10510;47.942;9.442;2024-01-30T06:10:41;35.53;;;14.85;;
11486;SDS011;10510;47.942;9.442;2024-01-30T06:12:41;36.97;;;14.57;;
11486;SDS011;10510;47.942;9.442;2024-01-30T06:14:41;35.33;;;14.80;;
11486;SDS011;10510;47.942;9.442;2024-01-30T06:16:42;29.15;;;12.50;;
11486;SDS011;10510;47.942;9.442;2024-01-30T06:18:42;31.52;;;14.32;;
11486;SDS011;10510;47.942;9.442;2024-01-30T06:20:43;31.10;;;13.45;;
11486;SDS011;10510;47.942;9.442;2024-01-30T06:22:43;28.98;;;12.18;;
11486;SDS011;10510;47.942;9.442;2024-01-30T06:24:43;31.88;;;13.38;;
11486;SDS011;10510;47.942;9.442;2024-01-30T06:26:45;32.95;;;12.82;;
11486;SDS011;10510;47.942;9.442;2024-01-30T06:28:45;33.55;;;15.02;;
11486;SDS011;10510;47.942;9.442;2024-01-30T06:30:46;29.55;;;12.32;;
11486;SDS011;10510;47.942;9.442;2024-01-30T06:32:46;26.00;;;12.20;;
11486;SDS011;10510;47.942;9.442;2024-01-30T06:34:46;47.67;;;16.92;;
11486;SDS011;10510;47.942;9.442;2024-01-30T06:36:46;75.60;;;20.38;;
11486;SDS011;10510;47.942;9.442;2024-01-30T06:38:47;87.63;;;25.77;;
11486;SDS011;10510;47.942;9.442;2024-01-30T06:40:47;75.57;;;22.50;;
11486;SDS011;10510;47.942;9.442;2024-01-30T06:42:47;61.75;;;20.50;;
11486;SDS011;10510;47.942;9.442;2024-01-30T06:44:48;107.53;;;29.63;;
11486;SDS011;10510;47.942;9.442;2024-01-30T06:46:48;53.45;;;19.77;;
11486;SDS011;10510;47.942;9.442;2024-01-30T06:48:48;134.23;;;35.63;;
11486;SDS011;10510;47.942;9.442;2024-01-30T06:50:49;129.32;;;33.08;;
11486;SDS011;10510;47.942;9.442;2024-01-30T06:52:50;72.72;;;23.25;;
11486;SDS011;10510;47.942;9.442;2024-01-30T06:54:51;31.92;;;12.43;;
11486;SDS011;10510;47.942;9.442;2024-01-30T06:56:51;60.35;;;18.70;;
11486;SDS011;10510;47.942;9.442;2024-01-30T06:58:51;68.68;;;21.35;;
11486;SDS011;10510;47.942;9.442;2024-01-30T07:00:51;87.63;;;26.00;;
11486;SDS011;10510;47.942;9.442;2024-01-30T07:02:52;164.85;;;43.67;;
11486;SDS011;10510;47.942;9.442;2024-01-30T07:04:53;137.60;;;36.30;;
11486;SDS011;10510;47.942;9.442;2024-01-30T07:06:53;116.60;;;32.40;;
11486;SDS011;10510;47.942;9.442;2024-01-30T07:08:53;107.72;;;29.02;;
11486;SDS011;10510;47.942;9.442;2024-01-30T07:10:53;43.30;;;17.45;;
11486;SDS011;10510;47.942;9.442;2024-01-30T07:12:55;54.88;;;19.40;;
11486;SDS011;10510;47.942;9.442;2024-01-30T07:14:55;81.10;;;25.23;;
11486;SDS011;10510;47.942;9.442;2024-01-30T07:16:56;84.78;;;29.73;;
11486;SDS011;10510;47.942;9.442;2024-01-30T07:18:56;104.25;;;30.88;;
11486;SDS011;10510;47.942;9.442;2024-01-30T07:20:57;105.38;;;32.50;;
11486;SDS011;10510;47.942;9.442;2024-01-30T07:22:57;142.60;;;43.63;;
11486;SDS011;10510;47.942;9.442;2024-01-30T07:24:58;132.57;;;40.78;;
11486;SDS011;10510;47.942;9.442;2024-01-30T07:26:58;85.15;;;30.55;;
11486;SDS011;10510;47.942;9.442;2024-01-30T07:28:59;89.85;;;30.45;;
11486;SDS011;10510;47.942;9.442;2024-01-30T07:30:59;65.35;;;24.65;;
11486;SDS011;10510;47.942;9.442;2024-01-30T07:33:00;85.38;;;26.40;;
11486;SDS011;10510;47.942;9.442;2024-01-30T07:35:00;56.40;;;22.48;;
11486;SDS011;10510;47.942;9.442;2024-01-30T07:37:00;44.50;;;18.65;;
11486;SDS011;10510;47.942;9.442;2024-01-30T07:39:01;53.65;;;21.23;;
11486;SDS011;10510;47.942;9.442;2024-01-30T07:41:01;52.15;;;18.00;;
11486;SDS011;10510;47.942;9.442;2024-01-30T07:43:01;53.72;;;21.95;;
11486;SDS011;10510;47.942;9.442;2024-01-30T07:45:03;51.35;;;20.35;;
11486;SDS011;10510;47.942;9.442;2024-01-30T07:47:04;47.40;;;17.08;;
11486;SDS011;10510;47.942;9.442;2024-01-30T07:49:04;35.28;;;14.02;;
11486;SDS011;10510;47.942;9.442;2024-01-30T07:51:05;38.03;;;14.38;;
11486;SDS011;10510;47.942;9.442;2024-01-30T07:53:05;36.70;;;14.27;;
11486;SDS011;10510;47.942;9.442;2024-01-30T07:55:05;22.83;;;11.43;;
11486;SDS011;10510;47.942;9.442;2024-01-30T07:57:07;26.65;;;11.10;;
11486;SDS011;10510;47.942;9.442;2024-01-30T07:59:11;22.65;;;10.55;;
11486;SDS011;10510;47.942;9.442;2024-01-30T08:01:11;30.75;;;12.20;;
11486;SDS011;10510;47.942;9.442;2024-01-30T08:03:12;40.80;;;15.13;;
11486;SDS011;10510;47.942;9.442;2024-01-30T08:05:12;33.65;;;13.95;;
11486;SDS011;10510;47.942;9.442;2024-01-30T08:07:15;31.50;;;14.38;;
11486;SDS011;10510;47.942;9.442;2024-01-30T08:09:15;34.78;;;15.27;;
11486;SDS011;10510;47.942;9.442;2024-01-30T08:11:16;32.97;;;13.40;;
11486;SDS011;10510;47.942;9.442;2024-01-30T08:13:16;36.22;;;15.25;;
11486;SDS011;10510;47.942;9.442;2024-01-30T08:15:16;34.80;;;14.90;;
11486;SDS011;10510;47.942;9.442;2024-01-30T08:17:17;33.33;;;13.65;;
11486;SDS011;10510;47.942;9.442;2024-01-30T08:19:17;33.08;;;14.68;;
11486;SDS011;10510;47.942;9.442;2024-01-30T08:21:17;29.10;;;13.82;;
11486;SDS011;10510;47.942;9.442;2024-01-30T08:23:17;30.50;;;13.90;;
11486;SDS011;10510;47.942;9.442;2024-01-30T08:25:18;29.52;;;13.52;;
11486;SDS011;10510;47.942;9.442;2024-01-30T08:27:18;34.35;;;14.23;;
11486;SDS011;10510;47.942;9.442;2024-01-30T08:29:18;26.48;;;12.85;;
11486;SDS011;10510;47.942;9.442;2024-01-30T08:31:19;38.58;;;15.90;;
11486;SDS011;10510;47.942;9.442;2024-01-30T08:33:19;39.10;;;17.23;;
11486;SDS011;10510;47.942;9.442;2024-01-30T08:35:19;60.25;;;23.58;;
11486;SDS011;10510;47.942;9.442;2024-01-30T08:37:19;30.08;;;13.23;;
11486;SDS011;10510;47.942;9.442;2024-01-30T08:39:20;27.67;;;14.45;;
11486;SDS011;10510;47.942;9.442;2024-01-30T08:41:20;23.05;;;12.57;;
11486;SDS011;10510;47.942;9.442;2024-01-30T08:43:20;19.10;;;9.88;;
11486;SDS011;10510;47.942;9.442;2024-01-30T08:45:21;25.70;;;12.40;;
11486;SDS011;10510;47.942;9.442;2024-01-30T08:47:21;26.05;;;12.25;;
11486;SDS011;10510;47.942;9.442;2024-01-30T08:49:21;21.30;;;10.30;;
11486;SDS011;10510;47.942;9.442;2024-01-30T08:51:22;31.83;;;12.80;;
11486;SDS011;10510;47.942;9.442;2024-01-30T08:53:22;30.85;;;11.60;;
11486;SDS011;10510;47.942;9.442;2024-01-30T08:55:22;19.40;;;9.90;;
11486;SDS011;10510;47.942;9.442;2024-01-30T08:57:23;49.92;;;18.85;;
11486;SDS011;10510;47.942;9.442;2024-01-30T08:59:23;45.50;;;18.77;;
11486;SDS011;10510;47.942;9.442;2024-01-30T09:01:24;23.27;;;11.75;;
11486;SDS011;10510;47.942;9.442;2024-01-30T09:03:25;23.67;;;10.65;;
11486;SDS011;10510;47.942;9.442;2024-01-30T09:05:25;28.73;;;13.75;;
11486;SDS011;10510;47.942;9.442;2024-01-30T09:07:25;26.65;;;13.30;;
11486;SDS011;10510;47.942;9.442;2024-01-30T09:09:26;20.30;;;11.02;;
11486;SDS011;10510;47.942;9.442;2024-01-30T09:11:26;16.35;;;9.98;;
11486;SDS011;10510;47.942;9.442;2024-01-30T09:13:26;18.83;;;10.60;;
11486;SDS011;10510;47.942;9.442;2024-01-30T09:15:27;24.55;;;11.27;;
11486;SDS011;10510;47.942;9.442;2024-01-30T09:17:27;24.67;;;12.90;;
11486;SDS011;10510;47.942;9.442;2024-01-30T09:19:27;25.52;;;14.80;;
11486;SDS011;10510;47.942;9.442;2024-01-30T09:21:28;25.67;;;12.98;;
11486;SDS011;10510;47.942;9.442;2024-01-30T09:23:28;19.92;;;10.93;;
11486;SDS011;10510;47.942;9.442;2024-01-30T09:25:28;21.00;;;11.75;;
11486;SDS011;10510;47.942;9.442;2024-01-30T09:27:28;19.92;;;11.23;;
11486;SDS011;10510;47.942;9.442;2024-01-30T09:29:29;30.92;;;16.02;;
11486;SDS011;10510;47.942;9.442;2024-01-30T09:31:29;20.38;;;13.25;;
11486;SDS011;10510;47.942;9.442;2024-01-30T09:33:29;21.55;;;13.30;;
11486;SDS011;10510;47.942;9.442;2024-01-30T09:35:30;24.73;;;13.13;;
11486;SDS011;10510;47.942;9.442;2024-01-30T09:37:30;30.35;;;14.60;;
11486;SDS011;10510;47.942;9.442;2024-01-30T09:39:30;25.35;;;14.77;;
11486;SDS011;10510;47.942;9.442;2024-01-30T09:41:32;29.98;;;14.85;;
11486;SDS011;10510;47.942;9.442;2024-01-30T09:43:33;26.77;;;15.07;;
11486;SDS011;10510;47.942;9.442;2024-01-30T09:45:36;26.92;;;13.73;;
11486;SDS011;10510;47.942;9.442;2024-01-30T09:47:41;24.20;;;13.70;;
11486;SDS011;10510;47.942;9.442;2024-01-30T09:49:43;21.80;;;12.23;;
11486;SDS011;10510;47.942;9.442;2024-01-30T09:51:44;21.70;;;13.00;;
11486;SDS011;10510;47.942;9.442;2024-01-30T09:53:45;24.10;;;12.45;;
11486;SDS011;10510;47.942;9.442;2024-01-30T09:55:46;23.67;;;11.93;;
11486;SDS011;10510;47.942;9.442;2024-01-30T09:57:47;19.25;;;11.93;;
11486;SDS011;10510;47.942;9.442;2024-01-30T09:59:47;22.65;;;11.52;;
11486;SDS011;10510;47.942;9.442;2024-01-30T10:01:48;21.52;;;12.80;;
11486;SDS011;10510;47.942;9.442;2024-01-30T10:03:50;17.08;;;10.77;;
11486;SDS011;10510;47.942;9.442;2024-01-30T10:05:52;24.65;;;11.00;;
11486;SDS011;10510;47.942;9.442;2024-01-30T10:07:53;21.08;;;12.15;;
11486;SDS011;10510;47.942;9.442;2024-01-30T10:09:55;19.65;;;11.35;;
11486;SDS011;10510;47.942;9.442;2024-01-30T10:11:57;21.42;;;11.73;;
11486;SDS011;10510;47.942;9.442;2024-01-30T10:13:58;24.52;;;11.68;;
11486;SDS011;10510;47.942;9.442;2024-01-30T10:15:58;19.08;;;11.32;;
11486;SDS011;10510;47.942;9.442;2024-01-30T10:17:59;19.40;;;11.13;;
11486;SDS011;10510;47.942;9.442;2024-01-30T10:19:59;18.67;;;10.85;;
11486;SDS011;10510;47.942;9.442;2024-01-30T10:22:00;21.90;;;11.85;;
11486;SDS011;10510;47.942;9.442;2024-01-30T10:24:00;24.63;;;12.02;;
11486;SDS011;10510;47.942;9.442;2024-01-30T10:26:02;22.23;;;12.57;;
11486;SDS011;10510;47.942;9.442;2024-01-30T10:28:04;21.95;;;11.93;;
11486;SDS011;10510;47.942;9.442;2024-01-30T10:30:04;21.23;;;11.73;;
11486;SDS011;10510;47.942;9.442;2024-01-30T10:32:05;21.13;;;11.90;;
11486;SDS011;10510;47.942;9.442;2024-01-30T10:34:06;23.70;;;12.40;;
11486;SDS011;10510;47.942;9.442;2024-01-30T10:36:06;20.00;;;11.50;;
11486;SDS011;10510;47.942;9.442;2024-01-30T10:38:07;21.20;;;11.77;;
11486;SDS011;10510;47.942;9.442;2024-01-30T10:40:13;21.02;;;12.40;;
11486;SDS011;10510;47.942;9.442;2024-01-30T10:42:17;18.63;;;11.75;;
11486;SDS011;10510;47.942;9.442;2024-01-30T10:44:19;24.77;;;12.90;;
11486;SDS011;10510;47.942;9.442;2024-01-30T10:46:22;19.38;;;11.73;;
11486;SDS011;10510;47.942;9.442;2024-01-30T10:48:30;23.00;;;12.82;;
11486;SDS011;10510;47.942;9.442;2024-01-30T10:50:32;23.50;;;11.02;;
11486;SDS011;10510;47.942;9.442;2024-01-30T10:52:34;29.17;;;12.98;;
11486;SDS011;10510;47.942;9.442;2024-01-30T10:54:34;25.27;;;13.60;;
11486;SDS011;10510;47.942;9.442;2024-01-30T10:56:36;28.33;;;13.27;;
11486;SDS011;10510;47.942;9.442;2024-01-30T10:58:36;68.80;;;28.50;;
11486;SDS011;10510;47.942;9.442;2024-01-30T11:00:37;121.85;;;49.97;;
11486;SDS011;10510;47.942;9.442;2024-01-30T11:02:41;47.38;;;20.95;;
11486;SDS011;10510;47.942;9.442;2024-01-30T11:04:45;37.08;;;18.38;;
11486;SDS011;10510;47.942;9.442;2024-01-30T11:06:45;19.52;;;11.15;;
11486;SDS011;10510;47.942;9.442;2024-01-30T11:09:10;19.00;;;10.88;;
11486;SDS011;10510;47.942;9.442;2024-01-30T11:11:12;17.10;;;10.38;;
11486;SDS011;10510;47.942;9.442;2024-01-30T11:13:13;27.83;;;11.13;;
11486;SDS011;10510;47.942;9.442;2024-01-30T11:15:15;20.25;;;10.70;;
11486;SDS011;10510;47.942;9.442;2024-01-30T11:17:16;17.77;;;9.88;;
11486;SDS011;10510;47.942;9.442;2024-01-30T11:19:24;19.98;;;10.13;;
11486;SDS011;10510;47.942;9.442;2024-01-30T11:21:27;19.10;;;9.90;;
11486;SDS011;10510;47.942;9.442;2024-01-30T11:23:28;19.58;;;9.27;;
11486;SDS011;10510;47.942;9.442;2024-01-30T11:25:28;21.92;;;9.50;;
11486;SDS011;10510;47.942;9.442;2024-01-30T11:27:32;19.38;;;10.02;;
11486;SDS011;10510;47.942;9.442;2024-01-30T11:29:32;14.73;;;8.80;;
11486;SDS011;10510;47.942;9.442;2024-01-30T11:31:35;16.25;;;8.68;;
11486;SDS011;10510;47.942;9.442;2024-01-30T11:33:35;16.33;;;9.52;;
11486;SDS011;10510;47.942;9.442;2024-01-30T11:35:36;18.80;;;9.07;;
11486;SDS011;10510;47.942;9.442;2024-01-30T11:37:41;18.55;;;10.27;;
11486;SDS011;10510;47.942;9.442;2024-01-30T11:39:43;16.55;;;9.32;;
11486;SDS011;10510;47.942;9.442;2024-01-30T11:41:45;22.25;;;10.27;;
11486;SDS011;10510;47.942;9.442;2024-01-30T11:43:52;17.77;;;9.45;;
11486;SDS011;10510;47.942;9.442;2024-01-30T11:45:53;18.70;;;9.93;;
11486;SDS011;10510;47.942;9.442;2024-01-30T11:47:53;21.98;;;10.65;;
11486;SDS011;10510;47.942;9.442;2024-01-30T11:49:54;19.92;;;9.45;;